X  Κλείσε Στοιχεία αεροπορικών μετεωρολογικών δεδομένων METAR     LIML Linate
θερμοκρασία
10°C θερμοκρασία
9°C Σημείο δρόσου
94% Υγρασία



Ανεμος
2 KM/H
1 MPH
0 M/S
1 KTS



Ηρεμία
Vóreios
Τρέχουσες συνθήκες

Φως ψιλοβρέχει, ομίχλη Φως ψιλοβρέχει, ομίχλη
πίεση 1024.92 (hPa) - 30.27 (inHg)
Ορατότητα 0.7 (μίλι) - 1.2 (km)
Aεροδρόμιο
Κωδικός αεροδρομίου LIML

Τοποθεσία: Linate
Απόσταση: 100 (km)

Metar:
LIML 171120Z VRB01KT 1200 R36/1100N -DZ BR SCT005 BKN010 BKN020 10/09 Q1025 NOSIG

ώρα: 02-17-2020 12:20 CET